createdAt,value
2022-11-13T00:01:25.014Z,24.15
2022-11-13T00:04:10.731Z,29.58
2022-11-13T00:06:59.068Z,26.27
2022-11-13T00:09:44.288Z,26.77
2022-11-13T00:12:29.164Z,25.33
2022-11-13T00:15:13.982Z,24.80
2022-11-13T00:18:00.899Z,27.42
2022-11-13T00:20:45.948Z,25.98
2022-11-13T00:23:34.515Z,26.67
2022-11-13T00:26:20.996Z,29.65
2022-11-13T00:29:05.828Z,29.10
2022-11-13T00:31:50.694Z,28.35
2022-11-13T00:34:50.753Z,26.98
2022-11-13T00:37:35.842Z,28.70
2022-11-13T00:40:20.682Z,23.85
2022-11-13T00:43:05.544Z,25.63
2022-11-13T00:45:50.451Z,24.00
2022-11-13T00:48:35.611Z,21.52
2022-11-13T00:51:20.648Z,20.95
2022-11-13T00:54:05.327Z,21.55
2022-11-13T00:56:50.099Z,21.58
2022-11-13T00:59:34.780Z,17.10
2022-11-13T01:02:19.643Z,16.95
2022-11-13T01:05:04.526Z,19.70
2022-11-13T01:07:49.234Z,18.77
2022-11-13T01:10:34.572Z,17.20
2022-11-13T01:13:19.315Z,20.48
2022-11-13T01:16:08.428Z,18.27
2022-11-13T01:18:54.263Z,15.98
2022-11-13T01:21:39.309Z,16.42
2022-11-13T01:24:24.168Z,18.02
2022-11-13T01:27:08.939Z,17.73
2022-11-13T01:29:53.798Z,17.60
2022-11-13T01:32:38.495Z,16.10
2022-11-13T01:35:23.225Z,15.20
2022-11-13T01:38:07.900Z,17.95
2022-11-13T01:40:52.664Z,14.27
2022-11-13T01:43:38.396Z,14.73
2022-11-13T01:46:27.763Z,17.08
2022-11-13T01:49:12.530Z,15.35
2022-11-13T01:52:00.336Z,14.77
2022-11-13T01:55:00.960Z,13.52
2022-11-13T01:57:45.940Z,15.65
2022-11-13T02:00:30.580Z,12.63
2022-11-13T02:03:15.436Z,11.48
2022-11-13T02:06:00.364Z,11.20
2022-11-13T02:08:45.869Z,12.88
2022-11-13T02:11:30.928Z,12.02
2022-11-13T02:14:16.054Z,11.50
2022-11-13T02:17:03.066Z,11.70
2022-11-13T02:19:50.562Z,10.52
2022-11-13T02:22:43.581Z,11.25
2022-11-13T02:25:29.946Z,17.52
2022-11-13T02:28:14.815Z,25.80
2022-11-13T02:31:06.047Z,19.75
2022-11-13T02:33:51.011Z,14.52
2022-11-13T02:36:36.234Z,11.85
2022-11-13T02:39:21.308Z,13.13
2022-11-13T02:42:06.125Z,11.27
2022-11-13T02:44:50.929Z,12.02
2022-11-13T02:47:35.947Z,13.57
2022-11-13T02:50:20.931Z,11.00
2022-11-13T02:53:05.808Z,11.80
2022-11-13T02:55:50.694Z,11.45
2022-11-13T02:58:35.358Z,11.50
2022-11-13T03:01:20.226Z,9.93
2022-11-13T03:04:04.806Z,8.85
2022-11-13T03:06:49.526Z,9.35
2022-11-13T03:09:34.288Z,8.98
2022-11-13T03:12:18.993Z,8.70
2022-11-13T03:15:04.779Z,7.82
2022-11-13T03:17:49.790Z,9.82
2022-11-13T03:20:36.016Z,7.63
2022-11-13T03:23:20.917Z,8.15
2022-11-13T03:26:06.821Z,9.45
2022-11-13T03:28:51.859Z,7.45
2022-11-13T03:31:36.685Z,9.48
2022-11-13T03:34:21.529Z,8.32
2022-11-13T03:37:07.456Z,10.25
2022-11-13T03:39:52.144Z,7.50
2022-11-13T03:42:36.993Z,9.05
2022-11-13T03:45:21.723Z,8.13
2022-11-13T03:48:06.563Z,6.25
2022-11-13T03:50:52.861Z,6.72
2022-11-13T03:53:37.714Z,5.97
2022-11-13T03:56:22.292Z,9.20
2022-11-13T03:59:07.343Z,7.00
2022-11-13T04:01:52.322Z,7.85
2022-11-13T04:04:37.792Z,7.47
2022-11-13T04:07:22.568Z,9.57
2022-11-13T04:10:07.411Z,7.47
2022-11-13T04:12:52.393Z,7.80
2022-11-13T04:15:37.120Z,7.72
2022-11-13T04:18:21.822Z,8.90
2022-11-13T04:21:06.565Z,10.55
2022-11-13T04:23:51.365Z,8.52
2022-11-13T04:26:36.039Z,8.32
2022-11-13T04:29:20.766Z,8.90
2022-11-13T04:32:05.657Z,7.47
2022-11-13T04:34:50.319Z,8.80
2022-11-13T04:37:35.154Z,11.55
2022-11-13T04:40:19.860Z,11.93
2022-11-13T04:43:04.902Z,13.82
2022-11-13T04:45:52.010Z,11.30
2022-11-13T04:48:37.218Z,6.78
2022-11-13T04:51:21.936Z,10.95
2022-11-13T04:54:06.742Z,11.57
2022-11-13T04:56:51.582Z,11.68
2022-11-13T04:59:36.350Z,9.90
2022-11-13T05:02:21.589Z,12.30
2022-11-13T05:05:06.466Z,14.35
2022-11-13T05:07:52.107Z,13.80
2022-11-13T05:10:37.302Z,15.15
2022-11-13T05:13:22.456Z,12.32
2022-11-13T05:16:08.738Z,15.43
2022-11-13T05:18:53.383Z,10.68
2022-11-13T05:21:39.421Z,12.10
2022-11-13T05:24:24.261Z,14.65
2022-11-13T05:27:14.194Z,15.07
2022-11-13T05:30:02.067Z,17.83
2022-11-13T05:32:46.880Z,14.60
2022-11-13T05:35:31.738Z,13.23
2022-11-13T05:38:16.751Z,17.38
2022-11-13T05:41:05.870Z,15.80
2022-11-13T05:43:56.543Z,17.65
2022-11-13T05:46:43.691Z,15.93
2022-11-13T05:49:28.614Z,11.75
2022-11-13T05:52:13.352Z,13.07
2022-11-13T05:54:58.259Z,10.40
2022-11-13T05:57:43.085Z,15.32
2022-11-13T06:00:27.879Z,13.82
2022-11-13T06:03:12.480Z,13.80
2022-11-13T06:05:57.931Z,13.75
2022-11-13T06:08:43.263Z,11.13
2022-11-13T06:11:28.923Z,13.30
2022-11-13T06:14:13.976Z,9.73
2022-11-13T06:16:58.732Z,11.52
2022-11-13T06:19:44.791Z,8.13
2022-11-13T06:22:29.844Z,5.95
2022-11-13T06:25:14.637Z,5.22
2022-11-13T06:27:59.491Z,5.93
2022-11-13T06:30:44.326Z,5.10
2022-11-13T06:33:29.061Z,4.80
2022-11-13T06:36:14.969Z,8.07
2022-11-13T06:39:00.684Z,6.60
2022-11-13T06:41:45.962Z,6.05
2022-11-13T06:44:30.854Z,5.32
2022-11-13T06:47:15.539Z,5.35
2022-11-13T06:50:00.375Z,5.70
2022-11-13T06:52:45.232Z,5.90
2022-11-13T06:55:29.957Z,7.25
2022-11-13T06:58:15.177Z,10.48
2022-11-13T07:01:11.243Z,6.70
2022-11-13T07:03:56.072Z,7.00
2022-11-13T07:06:40.856Z,8.60
2022-11-13T07:09:25.617Z,8.77
2022-11-13T07:12:10.380Z,10.13
2022-11-13T07:14:55.180Z,12.20
2022-11-13T07:17:40.097Z,13.85
2022-11-13T07:20:25.337Z,15.55
2022-11-13T07:23:10.187Z,16.33
2022-11-13T07:25:55.659Z,10.88
2022-11-13T07:28:40.493Z,12.80
2022-11-13T07:31:25.299Z,8.15
2022-11-13T07:34:10.114Z,10.90
2022-11-13T07:36:54.911Z,8.82
2022-11-13T07:39:39.770Z,10.93
2022-11-13T07:42:24.442Z,8.30
2022-11-13T07:45:09.475Z,12.35
2022-11-13T07:48:04.009Z,10.32
2022-11-13T07:50:49.085Z,10.50
2022-11-13T07:53:35.615Z,9.40
2022-11-13T07:56:23.263Z,3.95
2022-11-13T07:59:08.691Z,6.32
2022-11-13T08:01:53.640Z,4.43
2022-11-13T08:04:38.484Z,4.43
2022-11-13T08:07:23.244Z,5.50
2022-11-13T08:10:08.400Z,4.78
2022-11-13T08:13:04.129Z,3.47
2022-11-13T08:15:48.903Z,4.10
2022-11-13T08:18:33.695Z,4.68
2022-11-13T08:21:18.473Z,4.35
2022-11-13T08:24:03.166Z,8.00
2022-11-13T08:26:47.983Z,9.60
2022-11-13T08:29:33.753Z,8.77
2022-11-13T08:32:19.297Z,7.13
2022-11-13T08:35:04.395Z,7.25
2022-11-13T08:37:49.150Z,6.05
2022-11-13T08:40:34.340Z,6.78
2022-11-13T08:43:19.583Z,10.98
2022-11-13T08:46:05.034Z,12.35
2022-11-13T08:48:50.129Z,9.65
2022-11-13T08:51:35.120Z,12.18
2022-11-13T08:54:20.766Z,13.77
2022-11-13T08:57:06.211Z,9.75
2022-11-13T08:59:51.429Z,10.18
2022-11-13T09:02:36.104Z,8.52
2022-11-13T09:05:20.889Z,11.75
2022-11-13T09:08:06.109Z,12.13
2022-11-13T09:10:50.979Z,7.05
2022-11-13T09:13:39.834Z,8.82
2022-11-13T09:16:28.089Z,9.32
2022-11-13T09:19:12.892Z,5.20
2022-11-13T09:21:57.960Z,5.72
2022-11-13T09:24:42.613Z,4.47
2022-11-13T09:27:27.508Z,3.00
2022-11-13T09:30:12.614Z,3.53
2022-11-13T09:32:58.792Z,4.43
2022-11-13T09:35:43.772Z,3.35
2022-11-13T09:38:31.867Z,5.55
2022-11-13T09:41:18.846Z,3.05
2022-11-13T09:44:05.466Z,4.05
2022-11-13T09:46:53.286Z,4.38
2022-11-13T09:49:40.531Z,4.20
2022-11-13T09:52:31.142Z,3.63
2022-11-13T09:55:17.135Z,4.28
2022-11-13T09:58:06.786Z,3.92
2022-11-13T10:00:52.163Z,6.38
2022-11-13T10:07:05.659Z,4.40
2022-11-13T10:10:01.908Z,5.72
2022-11-13T10:12:48.068Z,5.57
2022-11-13T10:15:33.056Z,5.15
2022-11-13T10:18:29.283Z,4.07
2022-11-13T10:21:26.600Z,5.47
2022-11-13T10:24:31.872Z,7.07
2022-11-13T10:30:01.776Z,4.53
2022-11-13T10:32:46.984Z,4.65
2022-11-13T10:35:38.200Z,5.57
2022-11-13T10:38:35.012Z,4.22
2022-11-13T10:41:20.995Z,4.88
2022-11-13T10:44:21.580Z,3.92
2022-11-13T10:47:26.486Z,4.38
2022-11-13T10:50:23.010Z,3.55
2022-11-13T10:53:15.459Z,3.63
2022-11-13T10:56:00.534Z,4.18
2022-11-13T10:58:45.258Z,3.38
2022-11-13T11:01:30.327Z,3.28
2022-11-13T11:04:23.980Z,3.42
2022-11-13T11:07:21.326Z,3.40
2022-11-13T11:10:18.403Z,3.85
2022-11-13T11:13:10.671Z,3.28
2022-11-13T11:15:58.699Z,4.57
2022-11-13T11:19:09.935Z,3.38
2022-11-13T11:22:02.098Z,3.72
2022-11-13T11:24:51.553Z,4.43
2022-11-13T11:27:39.884Z,4.93
2022-11-13T11:30:28.454Z,4.40
2022-11-13T11:33:32.094Z,4.75
2022-11-13T11:36:23.732Z,2.50
2022-11-13T11:39:29.316Z,2.60
2022-11-13T11:42:26.622Z,3.47
2022-11-13T11:45:15.575Z,2.30
2022-11-13T11:48:01.724Z,2.80
2022-11-13T11:50:55.772Z,2.72
2022-11-13T11:53:40.482Z,2.28
2022-11-13T11:56:34.630Z,2.28
2022-11-13T11:59:24.191Z,2.20
2022-11-13T12:02:14.951Z,2.75
2022-11-13T12:05:18.690Z,1.95
2022-11-13T12:08:11.845Z,1.98
2022-11-13T12:10:56.573Z,4.18
2022-11-13T12:13:47.583Z,2.72
2022-11-13T12:16:41.001Z,4.80
2022-11-13T12:19:29.013Z,3.72
2022-11-13T12:22:36.245Z,4.65
2022-11-13T12:25:27.618Z,4.50
2022-11-13T12:28:12.564Z,6.18
2022-11-13T12:31:16.001Z,6.15
2022-11-13T12:34:17.968Z,6.10
2022-11-13T12:37:05.866Z,6.65
2022-11-13T12:39:58.247Z,8.23
2022-11-13T12:42:48.128Z,6.43
2022-11-13T12:45:48.794Z,7.93
2022-11-13T12:48:35.444Z,5.97
2022-11-13T12:51:20.921Z,6.30
2022-11-13T12:54:05.813Z,6.50
2022-11-13T12:56:50.862Z,5.90
2022-11-13T12:59:36.731Z,6.40
2022-11-13T13:02:27.811Z,6.25
2022-11-13T13:05:18.761Z,7.05
2022-11-13T13:08:05.125Z,6.03
2022-11-13T13:11:16.687Z,6.82
2022-11-13T13:14:20.127Z,6.47
2022-11-13T13:17:05.691Z,6.53
2022-11-13T13:20:17.068Z,8.45
2022-11-13T13:23:05.970Z,6.47
2022-11-13T13:26:01.621Z,6.22
2022-11-13T13:28:49.751Z,6.25
2022-11-13T13:31:57.345Z,5.85
2022-11-13T13:35:01.005Z,5.80
2022-11-13T13:38:10.535Z,6.47
2022-11-13T13:41:09.454Z,7.63
2022-11-13T13:44:09.446Z,6.57
2022-11-13T13:46:56.449Z,6.97
2022-11-13T13:49:41.394Z,5.00
2022-11-13T13:52:33.641Z,7.60
2022-11-13T13:55:28.035Z,5.60
2022-11-13T13:58:14.770Z,4.85
2022-11-13T14:04:12.349Z,9.18
2022-11-13T14:06:58.428Z,9.27
2022-11-13T14:09:43.037Z,5.00
2022-11-13T14:12:27.882Z,4.82
2022-11-13T14:15:18.929Z,5.53
2022-11-13T14:18:08.203Z,5.25
2022-11-13T14:20:55.165Z,5.20
2022-11-13T14:23:41.559Z,5.43
2022-11-13T14:26:26.776Z,4.82
2022-11-13T14:29:19.926Z,6.60
2022-11-13T14:32:06.052Z,6.65
2022-11-13T14:34:52.526Z,4.55
2022-11-13T14:37:38.647Z,5.05
2022-11-13T14:40:25.652Z,4.40
2022-11-13T14:43:15.994Z,5.40
2022-11-13T14:46:03.841Z,6.30
2022-11-13T14:48:52.947Z,7.93
2022-11-13T14:51:38.756Z,4.78
2022-11-13T14:54:33.768Z,4.50
2022-11-13T14:57:26.853Z,4.30
2022-11-13T15:00:27.186Z,7.15
2022-11-13T15:03:12.248Z,7.80
2022-11-13T15:05:57.613Z,5.43
2022-11-13T15:08:42.803Z,8.13
2022-11-13T15:11:27.764Z,7.25
2022-11-13T15:14:13.175Z,5.75
2022-11-13T15:16:58.787Z,7.32
2022-11-13T15:19:44.528Z,5.65
2022-11-13T15:22:29.186Z,5.70
2022-11-13T15:25:15.650Z,10.25
2022-11-13T15:28:00.504Z,6.03
2022-11-13T15:30:45.349Z,8.02
2022-11-13T15:33:30.354Z,7.07
2022-11-13T15:36:15.236Z,17.45
2022-11-13T15:39:04.802Z,20.55
2022-11-13T15:41:51.762Z,19.27
2022-11-13T15:44:36.562Z,9.05
2022-11-13T15:47:26.874Z,7.95
2022-11-13T15:50:14.853Z,9.43
2022-11-13T15:53:04.995Z,10.02
2022-11-13T15:55:50.292Z,10.15
2022-11-13T15:58:35.175Z,13.90
2022-11-13T16:01:20.156Z,11.48
2022-11-13T16:04:05.992Z,18.75
2022-11-13T16:06:51.047Z,11.95
2022-11-13T16:09:35.853Z,13.60
2022-11-13T16:12:20.700Z,10.45
2022-11-13T16:15:05.694Z,9.30
2022-11-13T16:17:52.370Z,10.70
2022-11-13T16:20:36.964Z,12.40
2022-11-13T16:23:22.337Z,14.43
2022-11-13T16:26:12.403Z,17.67
2022-11-13T16:29:13.337Z,18.45
2022-11-13T16:31:58.895Z,13.77
2022-11-13T16:34:44.517Z,16.15
2022-11-13T16:37:29.434Z,18.42
2022-11-13T16:40:19.098Z,16.55
2022-11-13T16:43:04.228Z,17.58
2022-11-13T16:45:49.147Z,12.48
2022-11-13T16:48:34.301Z,12.15
2022-11-13T16:51:19.148Z,9.93
2022-11-13T16:54:04.157Z,8.70
2022-11-13T16:56:48.864Z,12.73
2022-11-13T16:59:33.802Z,30.02
2022-11-13T17:02:19.027Z,26.02
2022-11-13T17:05:04.464Z,17.63
2022-11-13T17:07:52.999Z,13.43
2022-11-13T17:10:37.696Z,10.85
2022-11-13T17:13:22.487Z,13.38
2022-11-13T17:16:08.941Z,15.27
2022-11-13T17:18:54.196Z,15.23
2022-11-13T17:21:43.995Z,18.35
2022-11-13T17:24:29.771Z,16.60
2022-11-13T17:27:14.547Z,21.13
2022-11-13T17:29:59.413Z,18.48
2022-11-13T17:32:44.123Z,16.42
2022-11-13T17:35:28.954Z,16.67
2022-11-13T17:38:13.931Z,20.45
2022-11-13T17:41:06.188Z,21.02
2022-11-13T17:43:50.970Z,19.88
2022-11-13T17:46:35.835Z,17.25
2022-11-13T17:49:21.094Z,14.93
2022-11-13T17:52:06.274Z,16.02
2022-11-13T17:54:50.845Z,15.90
2022-11-13T17:57:35.668Z,16.05
2022-11-13T18:00:20.682Z,13.68
2022-11-13T18:03:05.346Z,13.38
2022-11-13T18:05:50.052Z,14.05
2022-11-13T18:08:37.325Z,16.60
2022-11-13T18:11:23.637Z,14.68
2022-11-13T18:14:08.738Z,24.45
2022-11-13T18:16:53.665Z,26.67
2022-11-13T18:19:38.544Z,27.65
2022-11-13T18:22:23.458Z,25.85
2022-11-13T18:25:08.419Z,25.98
2022-11-13T18:27:53.197Z,23.73
2022-11-13T18:30:39.209Z,25.63
2022-11-13T18:33:24.108Z,16.92
2022-11-13T18:36:09.164Z,17.15
2022-11-13T18:38:54.331Z,13.73
2022-11-13T18:41:39.537Z,17.15
2022-11-13T18:44:24.505Z,13.23
2022-11-13T18:47:09.287Z,11.07
2022-11-13T18:49:54.612Z,9.57
2022-11-13T18:52:39.407Z,10.68
2022-11-13T18:55:24.447Z,11.45
2022-11-13T18:58:09.083Z,12.55
2022-11-13T19:00:54.231Z,13.07
2022-11-13T19:03:41.529Z,11.82
2022-11-13T19:06:36.598Z,16.27
2022-11-13T19:09:21.578Z,13.80
2022-11-13T19:12:06.897Z,13.60
2022-11-13T19:14:51.751Z,12.40
2022-11-13T19:17:36.491Z,13.30
2022-11-13T19:20:21.438Z,14.10
2022-11-13T19:23:09.197Z,15.13
2022-11-13T19:25:54.275Z,15.07
2022-11-13T19:28:39.203Z,18.83
2022-11-13T19:31:26.343Z,19.40
2022-11-13T19:34:12.136Z,19.55
2022-11-13T19:36:56.831Z,14.68
2022-11-13T19:39:41.659Z,13.63
2022-11-13T19:42:26.415Z,15.95
2022-11-13T19:45:11.200Z,11.40
2022-11-13T19:47:55.890Z,8.38
2022-11-13T19:50:40.818Z,6.97
2022-11-13T19:53:25.696Z,8.95
2022-11-13T19:56:10.465Z,13.75
2022-11-13T19:58:55.678Z,10.88
2022-11-13T20:01:41.818Z,11.80
2022-11-13T20:04:26.579Z,8.18
2022-11-13T20:07:11.453Z,8.18
2022-11-13T20:09:56.677Z,7.65
2022-11-13T20:12:41.503Z,7.07
2022-11-13T20:15:26.196Z,6.38
2022-11-13T20:18:11.220Z,6.32
2022-11-13T20:20:56.014Z,6.22
2022-11-13T20:23:41.141Z,6.75
2022-11-13T20:26:27.360Z,5.65
2022-11-13T20:29:12.198Z,6.35
2022-11-13T20:31:56.848Z,5.72
2022-11-13T20:34:41.628Z,6.68
2022-11-13T20:37:26.388Z,6.45
2022-11-13T20:40:11.498Z,6.07
2022-11-13T20:42:56.508Z,6.28
2022-11-13T20:45:41.246Z,7.03
2022-11-13T20:48:26.242Z,6.05
2022-11-13T20:51:11.340Z,6.97
2022-11-13T20:53:56.486Z,10.07
2022-11-13T20:56:41.322Z,9.93
2022-11-13T20:59:26.487Z,9.50
2022-11-13T21:02:11.643Z,11.98
2022-11-13T21:04:56.335Z,10.88
2022-11-13T21:07:41.159Z,8.95
2022-11-13T21:10:25.895Z,10.20
2022-11-13T21:13:10.745Z,9.32
2022-11-13T21:15:55.426Z,9.43
2022-11-13T21:18:40.381Z,13.63
2022-11-13T21:21:26.361Z,7.13
2022-11-13T21:24:11.473Z,6.47
2022-11-13T21:26:57.029Z,6.45
2022-11-13T21:29:41.794Z,7.43
2022-11-13T21:32:26.731Z,6.35
2022-11-13T21:35:11.550Z,6.20
2022-11-13T21:37:56.226Z,8.00
2022-11-13T21:40:41.130Z,5.93
2022-11-13T21:43:25.967Z,6.00
2022-11-13T21:46:10.692Z,6.45
2022-11-13T21:48:57.087Z,6.43
2022-11-13T21:51:42.712Z,6.82
2022-11-13T21:54:27.644Z,5.78
2022-11-13T21:57:13.538Z,6.28
2022-11-13T21:59:58.609Z,6.50
2022-11-13T22:02:43.701Z,7.15
2022-11-13T22:05:28.549Z,7.03
2022-11-13T22:08:13.204Z,5.85
2022-11-13T22:10:58.138Z,6.78
2022-11-13T22:13:43.793Z,8.23
2022-11-13T22:16:29.840Z,7.03
2022-11-13T22:19:16.152Z,5.63
2022-11-13T22:22:00.799Z,6.57
2022-11-13T22:24:45.546Z,5.95
2022-11-13T22:27:30.290Z,7.82
2022-11-13T22:30:15.314Z,6.55
2022-11-13T22:33:00.226Z,6.43
2022-11-13T22:35:45.014Z,6.88
2022-11-13T22:38:30.323Z,7.88
2022-11-13T22:41:22.696Z,6.45
2022-11-13T22:44:11.451Z,7.72
2022-11-13T22:46:56.448Z,8.65
2022-11-13T22:49:41.191Z,6.40
2022-11-13T22:52:26.695Z,8.43
2022-11-13T22:55:11.432Z,9.27
2022-11-13T22:57:57.908Z,7.45
2022-11-13T23:00:42.823Z,8.00
2022-11-13T23:03:27.711Z,7.78
2022-11-13T23:06:13.769Z,7.53
2022-11-13T23:09:00.140Z,8.45
2022-11-13T23:11:44.910Z,9.32
2022-11-13T23:14:29.812Z,9.60
2022-11-13T23:17:14.509Z,9.23
2022-11-13T23:19:59.333Z,8.88
2022-11-13T23:22:44.025Z,8.07
2022-11-13T23:25:29.217Z,9.00
2022-11-13T23:28:13.981Z,11.20
2022-11-13T23:30:58.810Z,8.50
2022-11-13T23:33:43.682Z,17.38
2022-11-13T23:36:30.397Z,7.28
2022-11-13T23:39:15.511Z,8.82
2022-11-13T23:42:00.321Z,8.50
2022-11-13T23:44:45.159Z,8.05
2022-11-13T23:47:29.819Z,8.05
2022-11-13T23:50:14.930Z,9.88
2022-11-13T23:52:59.556Z,8.60
2022-11-13T23:55:44.650Z,8.77
2022-11-13T23:58:32.159Z,9.63
